sensor_id;sensor_type;location;lat;lon;timestamp;P1;durP1;ratioP1;P2;durP2;ratioP2
22502;SDS011;11418;48.118;9.992;2023-07-31T00:01:10;7.30;;;3.40;;
22502;SDS011;11418;48.118;9.992;2023-07-31T00:05:11;8.45;;;3.58;;
22502;SDS011;11418;48.118;9.992;2023-07-31T00:09:11;6.50;;;3.10;;
22502;SDS011;11418;48.118;9.992;2023-07-31T00:13:12;5.05;;;3.42;;
22502;SDS011;11418;48.118;9.992;2023-07-31T00:17:12;4.45;;;3.10;;
22502;SDS011;11418;48.118;9.992;2023-07-31T00:21:13;7.65;;;3.63;;
22502;SDS011;11418;48.118;9.992;2023-07-31T00:25:13;7.28;;;3.55;;
22502;SDS011;11418;48.118;9.992;2023-07-31T00:29:14;5.78;;;3.70;;
22502;SDS011;11418;48.118;9.992;2023-07-31T00:33:14;6.35;;;3.75;;
22502;SDS011;11418;48.118;9.992;2023-07-31T00:37:15;5.65;;;3.83;;
22502;SDS011;11418;48.118;9.992;2023-07-31T00:41:16;4.40;;;3.53;;
22502;SDS011;11418;48.118;9.992;2023-07-31T00:45:16;8.07;;;3.67;;
22502;SDS011;11418;48.118;9.992;2023-07-31T00:49:17;6.15;;;3.83;;
22502;SDS011;11418;48.118;9.992;2023-07-31T00:53:18;4.75;;;3.88;;
22502;SDS011;11418;48.118;9.992;2023-07-31T00:57:18;8.98;;;4.45;;
22502;SDS011;11418;48.118;9.992;2023-07-31T01:01:19;7.97;;;4.45;;
22502;SDS011;11418;48.118;9.992;2023-07-31T01:05:20;8.88;;;4.15;;
22502;SDS011;11418;48.118;9.992;2023-07-31T01:10:14;5.35;;;4.35;;
22502;SDS011;11418;48.118;9.992;2023-07-31T01:14:02;6.68;;;3.85;;
22502;SDS011;11418;48.118;9.992;2023-07-31T01:18:03;13.57;;;7.90;;
22502;SDS011;11418;48.118;9.992;2023-07-31T01:26:31;9.27;;;4.22;;
22502;SDS011;11418;48.118;9.992;2023-07-31T01:30:34;5.65;;;3.92;;
22502;SDS011;11418;48.118;9.992;2023-07-31T01:34:40;5.47;;;3.88;;
22502;SDS011;11418;48.118;9.992;2023-07-31T01:38:42;6.55;;;3.80;;
22502;SDS011;11418;48.118;9.992;2023-07-31T01:42:42;6.65;;;3.90;;
22502;SDS011;11418;48.118;9.992;2023-07-31T01:46:43;7.45;;;3.75;;
22502;SDS011;11418;48.118;9.992;2023-07-31T01:50:43;7.55;;;4.20;;
22502;SDS011;11418;48.118;9.992;2023-07-31T01:54:44;9.80;;;3.72;;
22502;SDS011;11418;48.118;9.992;2023-07-31T01:58:44;9.93;;;4.40;;
22502;SDS011;11418;48.118;9.992;2023-07-31T02:02:45;5.13;;;3.90;;
22502;SDS011;11418;48.118;9.992;2023-07-31T02:06:45;6.75;;;3.88;;
22502;SDS011;11418;48.118;9.992;2023-07-31T02:10:46;6.78;;;3.63;;
22502;SDS011;11418;48.118;9.992;2023-07-31T02:14:46;10.05;;;4.45;;
22502;SDS011;11418;48.118;9.992;2023-07-31T02:18:47;7.50;;;4.18;;
22502;SDS011;11418;48.118;9.992;2023-07-31T02:22:47;8.40;;;4.13;;
22502;SDS011;11418;48.118;9.992;2023-07-31T02:26:48;10.45;;;4.38;;
22502;SDS011;11418;48.118;9.992;2023-07-31T02:30:50;7.35;;;4.50;;
22502;SDS011;11418;48.118;9.992;2023-07-31T02:34:52;7.10;;;4.57;;
22502;SDS011;11418;48.118;9.992;2023-07-31T02:38:52;10.93;;;4.57;;
22502;SDS011;11418;48.118;9.992;2023-07-31T02:42:53;8.70;;;4.93;;
22502;SDS011;11418;48.118;9.992;2023-07-31T02:46:53;7.55;;;4.22;;
22502;SDS011;11418;48.118;9.992;2023-07-31T02:50:54;5.80;;;4.90;;
22502;SDS011;11418;48.118;9.992;2023-07-31T02:54:54;6.47;;;4.53;;
22502;SDS011;11418;48.118;9.992;2023-07-31T02:58:55;7.80;;;4.47;;
22502;SDS011;11418;48.118;9.992;2023-07-31T03:02:55;8.95;;;4.80;;
22502;SDS011;11418;48.118;9.992;2023-07-31T03:06:56;7.63;;;3.88;;
22502;SDS011;11418;48.118;9.992;2023-07-31T03:10:56;7.68;;;3.83;;
22502;SDS011;11418;48.118;9.992;2023-07-31T03:14:57;4.93;;;3.63;;
22502;SDS011;11418;48.118;9.992;2023-07-31T03:18:57;6.35;;;3.72;;
22502;SDS011;11418;48.118;9.992;2023-07-31T03:22:58;4.88;;;3.72;;
22502;SDS011;11418;48.118;9.992;2023-07-31T03:26:58;5.80;;;3.60;;
22502;SDS011;11418;48.118;9.992;2023-07-31T03:30:59;9.05;;;4.07;;
22502;SDS011;11418;48.118;9.992;2023-07-31T03:35:00;9.75;;;3.95;;
22502;SDS011;11418;48.118;9.992;2023-07-31T03:39:00;6.63;;;3.78;;
22502;SDS011;11418;48.118;9.992;2023-07-31T03:43:01;4.53;;;3.63;;
22502;SDS011;11418;48.118;9.992;2023-07-31T03:47:01;8.10;;;4.10;;
22502;SDS011;11418;48.118;9.992;2023-07-31T03:51:02;6.55;;;4.03;;
22502;SDS011;11418;48.118;9.992;2023-07-31T03:55:03;9.70;;;3.80;;
22502;SDS011;11418;48.118;9.992;2023-07-31T03:59:03;7.18;;;4.00;;
22502;SDS011;11418;48.118;9.992;2023-07-31T04:03:04;6.43;;;3.65;;
22502;SDS011;11418;48.118;9.992;2023-07-31T04:07:05;9.30;;;4.68;;
22502;SDS011;11418;48.118;9.992;2023-07-31T04:11:05;7.15;;;5.22;;
22502;SDS011;11418;48.118;9.992;2023-07-31T04:15:06;7.68;;;4.78;;
22502;SDS011;11418;48.118;9.992;2023-07-31T04:19:06;9.15;;;4.65;;
22502;SDS011;11418;48.118;9.992;2023-07-31T04:23:07;8.38;;;4.45;;
22502;SDS011;11418;48.118;9.992;2023-07-31T04:27:07;6.13;;;3.75;;
22502;SDS011;11418;48.118;9.992;2023-07-31T04:31:08;8.75;;;3.92;;
22502;SDS011;11418;48.118;9.992;2023-07-31T04:35:08;5.10;;;3.55;;
22502;SDS011;11418;48.118;9.992;2023-07-31T04:39:09;8.77;;;3.33;;
22502;SDS011;11418;48.118;9.992;2023-07-31T04:43:09;3.95;;;3.03;;
22502;SDS011;11418;48.118;9.992;2023-07-31T04:47:10;6.40;;;3.40;;
22502;SDS011;11418;48.118;9.992;2023-07-31T04:51:11;6.55;;;3.40;;
22502;SDS011;11418;48.118;9.992;2023-07-31T04:55:11;4.40;;;2.67;;
22502;SDS011;11418;48.118;9.992;2023-07-31T04:59:12;5.20;;;3.22;;
22502;SDS011;11418;48.118;9.992;2023-07-31T05:03:12;6.03;;;2.70;;
22502;SDS011;11418;48.118;9.992;2023-07-31T05:07:13;4.68;;;2.65;;
22502;SDS011;11418;48.118;9.992;2023-07-31T05:11:13;4.78;;;3.03;;
22502;SDS011;11418;48.118;9.992;2023-07-31T05:15:14;7.15;;;2.75;;
22502;SDS011;11418;48.118;9.992;2023-07-31T05:19:14;3.92;;;2.83;;
22502;SDS011;11418;48.118;9.992;2023-07-31T05:23:15;3.85;;;2.40;;
22502;SDS011;11418;48.118;9.992;2023-07-31T05:27:15;7.63;;;2.30;;
22502;SDS011;11418;48.118;9.992;2023-07-31T05:31:18;3.55;;;2.35;;
22502;SDS011;11418;48.118;9.992;2023-07-31T05:35:19;4.15;;;2.50;;
22502;SDS011;11418;48.118;9.992;2023-07-31T05:39:19;5.10;;;2.67;;
22502;SDS011;11418;48.118;9.992;2023-07-31T05:43:20;5.10;;;2.40;;
22502;SDS011;11418;48.118;9.992;2023-07-31T05:47:20;4.88;;;2.20;;
22502;SDS011;11418;48.118;9.992;2023-07-31T05:51:21;3.35;;;2.30;;
22502;SDS011;11418;48.118;9.992;2023-07-31T05:55:21;4.78;;;2.72;;
22502;SDS011;11418;48.118;9.992;2023-07-31T05:59:23;7.15;;;2.30;;
22502;SDS011;11418;48.118;9.992;2023-07-31T06:03:24;3.75;;;2.33;;
22502;SDS011;11418;48.118;9.992;2023-07-31T06:07:24;5.85;;;2.22;;
22502;SDS011;11418;48.118;9.992;2023-07-31T06:11:25;3.35;;;2.20;;
22502;SDS011;11418;48.118;9.992;2023-07-31T06:15:25;5.18;;;2.10;;
22502;SDS011;11418;48.118;9.992;2023-07-31T06:19:26;8.43;;;2.50;;
22502;SDS011;11418;48.118;9.992;2023-07-31T06:23:26;4.53;;;2.20;;
22502;SDS011;11418;48.118;9.992;2023-07-31T06:27:27;6.15;;;2.03;;
22502;SDS011;11418;48.118;9.992;2023-07-31T06:31:28;3.97;;;1.90;;
22502;SDS011;11418;48.118;9.992;2023-07-31T06:35:28;3.58;;;1.85;;
22502;SDS011;11418;48.118;9.992;2023-07-31T06:39:29;4.75;;;1.63;;
22502;SDS011;11418;48.118;9.992;2023-07-31T06:43:29;5.32;;;1.80;;
22502;SDS011;11418;48.118;9.992;2023-07-31T06:47:30;9.52;;;1.55;;
22502;SDS011;11418;48.118;9.992;2023-07-31T06:51:30;1.90;;;1.30;;
22502;SDS011;11418;48.118;9.992;2023-07-31T06:55:33;3.67;;;1.63;;
22502;SDS011;11418;48.118;9.992;2023-07-31T06:59:34;6.65;;;1.55;;
22502;SDS011;11418;48.118;9.992;2023-07-31T07:03:35;3.50;;;1.50;;
22502;SDS011;11418;48.118;9.992;2023-07-31T07:07:35;3.53;;;1.63;;
22502;SDS011;11418;48.118;9.992;2023-07-31T07:11:36;3.53;;;1.70;;
22502;SDS011;11418;48.118;9.992;2023-07-31T07:15:37;4.22;;;1.67;;
22502;SDS011;11418;48.118;9.992;2023-07-31T07:19:40;2.70;;;1.80;;
22502;SDS011;11418;48.118;9.992;2023-07-31T07:23:41;4.25;;;1.70;;
22502;SDS011;11418;48.118;9.992;2023-07-31T07:27:42;4.05;;;1.90;;
22502;SDS011;11418;48.118;9.992;2023-07-31T07:31:43;4.68;;;1.70;;
22502;SDS011;11418;48.118;9.992;2023-07-31T07:35:43;2.78;;;1.60;;
22502;SDS011;11418;48.118;9.992;2023-07-31T07:39:44;3.75;;;1.60;;
22502;SDS011;11418;48.118;9.992;2023-07-31T07:43:44;5.82;;;1.98;;
22502;SDS011;11418;48.118;9.992;2023-07-31T07:47:45;5.68;;;1.75;;
22502;SDS011;11418;48.118;9.992;2023-07-31T07:51:46;4.45;;;1.90;;
22502;SDS011;11418;48.118;9.992;2023-07-31T07:55:48;6.05;;;1.70;;
22502;SDS011;11418;48.118;9.992;2023-07-31T07:59:48;5.60;;;1.73;;
22502;SDS011;11418;48.118;9.992;2023-07-31T08:03:49;4.90;;;1.48;;
22502;SDS011;11418;48.118;9.992;2023-07-31T08:07:50;5.13;;;1.85;;
22502;SDS011;11418;48.118;9.992;2023-07-31T08:11:50;3.30;;;1.83;;
22502;SDS011;11418;48.118;9.992;2023-07-31T08:15:51;2.97;;;1.52;;
22502;SDS011;11418;48.118;9.992;2023-07-31T08:19:51;3.72;;;1.63;;
22502;SDS011;11418;48.118;9.992;2023-07-31T08:23:52;4.07;;;1.80;;
22502;SDS011;11418;48.118;9.992;2023-07-31T08:27:52;4.38;;;1.60;;
22502;SDS011;11418;48.118;9.992;2023-07-31T08:31:54;3.53;;;1.50;;
22502;SDS011;11418;48.118;9.992;2023-07-31T08:35:54;2.25;;;1.58;;
22502;SDS011;11418;48.118;9.992;2023-07-31T08:39:55;3.40;;;1.83;;
22502;SDS011;11418;48.118;9.992;2023-07-31T08:43:55;5.57;;;1.83;;
22502;SDS011;11418;48.118;9.992;2023-07-31T08:47:57;5.07;;;1.90;;
22502;SDS011;11418;48.118;9.992;2023-07-31T08:51:59;4.93;;;1.90;;
22502;SDS011;11418;48.118;9.992;2023-07-31T08:55:59;4.15;;;1.90;;
22502;SDS011;11418;48.118;9.992;2023-07-31T09:00:01;5.60;;;1.77;;
22502;SDS011;11418;48.118;9.992;2023-07-31T09:04:03;4.00;;;1.58;;
22502;SDS011;11418;48.118;9.992;2023-07-31T09:08:05;4.80;;;1.85;;
22502;SDS011;11418;48.118;9.992;2023-07-31T09:12:07;4.60;;;1.60;;
22502;SDS011;11418;48.118;9.992;2023-07-31T09:16:08;4.18;;;1.35;;
22502;SDS011;11418;48.118;9.992;2023-07-31T09:20:14;4.65;;;1.60;;
22502;SDS011;11418;48.118;9.992;2023-07-31T09:24:25;4.70;;;1.70;;
22502;SDS011;11418;48.118;9.992;2023-07-31T09:28:30;5.82;;;1.50;;
22502;SDS011;11418;48.118;9.992;2023-07-31T09:32:31;3.50;;;1.48;;
22502;SDS011;11418;48.118;9.992;2023-07-31T09:36:32;3.53;;;1.40;;
22502;SDS011;11418;48.118;9.992;2023-07-31T09:40:34;3.25;;;1.80;;
22502;SDS011;11418;48.118;9.992;2023-07-31T09:44:39;1.70;;;1.40;;
22502;SDS011;11418;48.118;9.992;2023-07-31T09:48:41;3.45;;;1.80;;
22502;SDS011;11418;48.118;9.992;2023-07-31T09:52:42;4.38;;;1.80;;
22502;SDS011;11418;48.118;9.992;2023-07-31T09:56:44;3.60;;;1.58;;
22502;SDS011;11418;48.118;9.992;2023-07-31T10:00:46;5.72;;;1.90;;
22502;SDS011;11418;48.118;9.992;2023-07-31T10:04:48;3.63;;;1.48;;
22502;SDS011;11418;48.118;9.992;2023-07-31T10:08:50;3.47;;;1.80;;
22502;SDS011;11418;48.118;9.992;2023-07-31T10:12:52;3.67;;;2.03;;
22502;SDS011;11418;48.118;9.992;2023-07-31T10:16:54;3.63;;;1.45;;
22502;SDS011;11418;48.118;9.992;2023-07-31T10:20:55;3.90;;;1.35;;
22502;SDS011;11418;48.118;9.992;2023-07-31T10:24:57;4.00;;;1.70;;
22502;SDS011;11418;48.118;9.992;2023-07-31T10:28:59;5.20;;;1.90;;
22502;SDS011;11418;48.118;9.992;2023-07-31T10:33:01;3.55;;;1.50;;
22502;SDS011;11418;48.118;9.992;2023-07-31T10:41:28;4.22;;;1.42;;
22502;SDS011;11418;48.118;9.992;2023-07-31T10:45:36;6.90;;;1.80;;
22502;SDS011;11418;48.118;9.992;2023-07-31T10:49:38;5.82;;;1.77;;
22502;SDS011;11418;48.118;9.992;2023-07-31T10:53:39;2.88;;;1.30;;
22502;SDS011;11418;48.118;9.992;2023-07-31T10:57:43;4.43;;;1.73;;
22502;SDS011;11418;48.118;9.992;2023-07-31T11:01:55;4.90;;;1.67;;
22502;SDS011;11418;48.118;9.992;2023-07-31T11:06:03;4.95;;;1.60;;
22502;SDS011;11418;48.118;9.992;2023-07-31T11:10:04;3.83;;;1.70;;
22502;SDS011;11418;48.118;9.992;2023-07-31T11:14:05;6.97;;;1.45;;
22502;SDS011;11418;48.118;9.992;2023-07-31T11:18:06;3.95;;;1.80;;
22502;SDS011;11418;48.118;9.992;2023-07-31T11:22:08;3.92;;;1.70;;
22502;SDS011;11418;48.118;9.992;2023-07-31T11:26:09;2.97;;;1.80;;
22502;SDS011;11418;48.118;9.992;2023-07-31T11:30:10;3.35;;;1.77;;
22502;SDS011;11418;48.118;9.992;2023-07-31T11:34:11;5.57;;;1.90;;
22502;SDS011;11418;48.118;9.992;2023-07-31T11:38:12;4.55;;;1.67;;
22502;SDS011;11418;48.118;9.992;2023-07-31T11:42:25;3.50;;;1.77;;
22502;SDS011;11418;48.118;9.992;2023-07-31T11:46:25;4.57;;;1.60;;
22502;SDS011;11418;48.118;9.992;2023-07-31T11:50:26;7.10;;;1.90;;
22502;SDS011;11418;48.118;9.992;2023-07-31T11:54:27;3.13;;;1.65;;
22502;SDS011;11418;48.118;9.992;2023-07-31T11:58:28;3.88;;;1.73;;
22502;SDS011;11418;48.118;9.992;2023-07-31T12:02:30;3.28;;;1.60;;
22502;SDS011;11418;48.118;9.992;2023-07-31T12:06:32;4.75;;;1.90;;
22502;SDS011;11418;48.118;9.992;2023-07-31T12:10:36;4.85;;;2.17;;
22502;SDS011;11418;48.118;9.992;2023-07-31T12:14:36;3.95;;;1.77;;
22502;SDS011;11418;48.118;9.992;2023-07-31T12:18:41;5.50;;;2.28;;
22502;SDS011;11418;48.118;9.992;2023-07-31T12:22:42;3.05;;;1.75;;
22502;SDS011;11418;48.118;9.992;2023-07-31T12:26:45;3.40;;;1.70;;
22502;SDS011;11418;48.118;9.992;2023-07-31T12:30:46;3.85;;;1.70;;
22502;SDS011;11418;48.118;9.992;2023-07-31T12:34:47;4.53;;;1.80;;
22502;SDS011;11418;48.118;9.992;2023-07-31T12:38:48;6.00;;;1.67;;
22502;SDS011;11418;48.118;9.992;2023-07-31T12:42:50;2.92;;;1.38;;
22502;SDS011;11418;48.118;9.992;2023-07-31T12:46:51;3.25;;;2.00;;
22502;SDS011;11418;48.118;9.992;2023-07-31T12:50:51;2.83;;;1.50;;
22502;SDS011;11418;48.118;9.992;2023-07-31T12:54:52;5.25;;;1.63;;
22502;SDS011;11418;48.118;9.992;2023-07-31T12:58:52;2.97;;;1.75;;
22502;SDS011;11418;48.118;9.992;2023-07-31T13:02:53;3.08;;;2.00;;
22502;SDS011;11418;48.118;9.992;2023-07-31T13:06:54;2.83;;;1.70;;
22502;SDS011;11418;48.118;9.992;2023-07-31T13:10:55;4.47;;;2.05;;
22502;SDS011;11418;48.118;9.992;2023-07-31T13:14:55;3.72;;;2.05;;
22502;SDS011;11418;48.118;9.992;2023-07-31T13:18:56;4.53;;;2.10;;
22502;SDS011;11418;48.118;9.992;2023-07-31T13:22:56;9.43;;;2.97;;
22502;SDS011;11418;48.118;9.992;2023-07-31T13:26:57;4.47;;;2.05;;
22502;SDS011;11418;48.118;9.992;2023-07-31T13:30:58;6.95;;;2.20;;
22502;SDS011;11418;48.118;9.992;2023-07-31T13:34:58;5.03;;;2.20;;
22502;SDS011;11418;48.118;9.992;2023-07-31T13:38:59;2.85;;;1.90;;
22502;SDS011;11418;48.118;9.992;2023-07-31T13:43:00;14.32;;;2.05;;
22502;SDS011;11418;48.118;9.992;2023-07-31T13:47:01;6.35;;;2.50;;
22502;SDS011;11418;48.118;9.992;2023-07-31T13:51:02;7.95;;;2.58;;
22502;SDS011;11418;48.118;9.992;2023-07-31T13:55:02;3.40;;;1.95;;
22502;SDS011;11418;48.118;9.992;2023-07-31T13:59:03;4.25;;;2.00;;
22502;SDS011;11418;48.118;9.992;2023-07-31T14:03:04;7.93;;;2.75;;
22502;SDS011;11418;48.118;9.992;2023-07-31T14:07:04;3.97;;;1.92;;
22502;SDS011;11418;48.118;9.992;2023-07-31T14:11:05;2.40;;;1.70;;
22502;SDS011;11418;48.118;9.992;2023-07-31T14:15:05;4.88;;;2.10;;
22502;SDS011;11418;48.118;9.992;2023-07-31T14:19:06;4.53;;;1.95;;
22502;SDS011;11418;48.118;9.992;2023-07-31T14:23:08;4.03;;;1.70;;
22502;SDS011;11418;48.118;9.992;2023-07-31T14:27:09;5.25;;;1.92;;
22502;SDS011;11418;48.118;9.992;2023-07-31T14:31:09;5.72;;;2.53;;
22502;SDS011;11418;48.118;9.992;2023-07-31T14:35:10;3.17;;;2.00;;
22502;SDS011;11418;48.118;9.992;2023-07-31T14:39:10;3.28;;;1.90;;
22502;SDS011;11418;48.118;9.992;2023-07-31T14:43:11;4.22;;;1.98;;
22502;SDS011;11418;48.118;9.992;2023-07-31T14:47:11;3.42;;;2.20;;
22502;SDS011;11418;48.118;9.992;2023-07-31T14:51:12;5.13;;;2.15;;
22502;SDS011;11418;48.118;9.992;2023-07-31T14:55:14;3.50;;;2.17;;
22502;SDS011;11418;48.118;9.992;2023-07-31T14:59:14;6.82;;;2.13;;
22502;SDS011;11418;48.118;9.992;2023-07-31T15:03:15;3.17;;;1.92;;
22502;SDS011;11418;48.118;9.992;2023-07-31T15:07:16;4.75;;;2.00;;
22502;SDS011;11418;48.118;9.992;2023-07-31T15:11:16;3.67;;;2.10;;
22502;SDS011;11418;48.118;9.992;2023-07-31T15:15:18;5.45;;;2.00;;
22502;SDS011;11418;48.118;9.992;2023-07-31T15:19:18;4.35;;;2.13;;
22502;SDS011;11418;48.118;9.992;2023-07-31T15:23:19;4.30;;;2.05;;
22502;SDS011;11418;48.118;9.992;2023-07-31T15:27:19;4.95;;;2.20;;
22502;SDS011;11418;48.118;9.992;2023-07-31T15:31:20;3.75;;;2.28;;
22502;SDS011;11418;48.118;9.992;2023-07-31T15:35:22;5.25;;;2.70;;
22502;SDS011;11418;48.118;9.992;2023-07-31T15:39:22;6.07;;;3.15;;
22502;SDS011;11418;48.118;9.992;2023-07-31T15:43:23;6.80;;;2.50;;
22502;SDS011;11418;48.118;9.992;2023-07-31T15:47:23;4.40;;;2.67;;
22502;SDS011;11418;48.118;9.992;2023-07-31T15:51:24;4.78;;;3.17;;
22502;SDS011;11418;48.118;9.992;2023-07-31T15:55:25;6.65;;;2.08;;
22502;SDS011;11418;48.118;9.992;2023-07-31T15:59:26;3.63;;;2.20;;
22502;SDS011;11418;48.118;9.992;2023-07-31T16:03:27;4.18;;;2.75;;
22502;SDS011;11418;48.118;9.992;2023-07-31T16:07:27;13.68;;;9.82;;
22502;SDS011;11418;48.118;9.992;2023-07-31T16:11:28;5.50;;;2.58;;
22502;SDS011;11418;48.118;9.992;2023-07-31T16:15:28;4.55;;;3.00;;
22502;SDS011;11418;48.118;9.992;2023-07-31T16:19:29;8.32;;;4.18;;
22502;SDS011;11418;48.118;9.992;2023-07-31T16:23:30;6.18;;;2.60;;
22502;SDS011;11418;48.118;9.992;2023-07-31T16:27:30;5.28;;;2.50;;
22502;SDS011;11418;48.118;9.992;2023-07-31T16:31:31;4.45;;;2.50;;
22502;SDS011;11418;48.118;9.992;2023-07-31T16:35:31;4.03;;;2.40;;
22502;SDS011;11418;48.118;9.992;2023-07-31T16:39:32;5.70;;;2.70;;
22502;SDS011;11418;48.118;9.992;2023-07-31T16:43:36;8.38;;;3.70;;
22502;SDS011;11418;48.118;9.992;2023-07-31T16:47:36;6.18;;;2.80;;
22502;SDS011;11418;48.118;9.992;2023-07-31T16:51:37;4.43;;;2.70;;
22502;SDS011;11418;48.118;9.992;2023-07-31T16:55:37;5.07;;;2.75;;
22502;SDS011;11418;48.118;9.992;2023-07-31T16:59:38;5.22;;;2.90;;
22502;SDS011;11418;48.118;9.992;2023-07-31T17:03:38;5.80;;;2.83;;
22502;SDS011;11418;48.118;9.992;2023-07-31T17:07:39;5.18;;;2.72;;
22502;SDS011;11418;48.118;9.992;2023-07-31T17:11:39;6.53;;;2.80;;
22502;SDS011;11418;48.118;9.992;2023-07-31T17:15:40;5.13;;;2.72;;
22502;SDS011;11418;48.118;9.992;2023-07-31T17:19:40;4.38;;;2.70;;
22502;SDS011;11418;48.118;9.992;2023-07-31T17:23:41;4.95;;;2.80;;
22502;SDS011;11418;48.118;9.992;2023-07-31T17:27:41;4.88;;;2.63;;
22502;SDS011;11418;48.118;9.992;2023-07-31T17:31:42;4.78;;;2.80;;
22502;SDS011;11418;48.118;9.992;2023-07-31T17:35:43;4.55;;;2.58;;
22502;SDS011;11418;48.118;9.992;2023-07-31T17:39:43;5.75;;;2.85;;
22502;SDS011;11418;48.118;9.992;2023-07-31T17:43:44;7.07;;;2.75;;
22502;SDS011;11418;48.118;9.992;2023-07-31T17:47:45;8.27;;;3.03;;
22502;SDS011;11418;48.118;9.992;2023-07-31T17:51:46;4.60;;;2.95;;
22502;SDS011;11418;48.118;9.992;2023-07-31T17:55:46;5.05;;;2.97;;
22502;SDS011;11418;48.118;9.992;2023-07-31T17:59:47;6.47;;;2.80;;
22502;SDS011;11418;48.118;9.992;2023-07-31T18:03:48;4.70;;;2.95;;
22502;SDS011;11418;48.118;9.992;2023-07-31T18:07:48;5.43;;;2.92;;
22502;SDS011;11418;48.118;9.992;2023-07-31T18:11:49;4.95;;;2.85;;
22502;SDS011;11418;48.118;9.992;2023-07-31T18:15:50;8.98;;;3.22;;
22502;SDS011;11418;48.118;9.992;2023-07-31T18:19:50;6.03;;;2.85;;
22502;SDS011;11418;48.118;9.992;2023-07-31T18:23:51;5.60;;;3.03;;
22502;SDS011;11418;48.118;9.992;2023-07-31T18:27:51;5.28;;;2.88;;
22502;SDS011;11418;48.118;9.992;2023-07-31T18:31:52;6.43;;;3.05;;
22502;SDS011;11418;48.118;9.992;2023-07-31T18:35:52;9.70;;;3.55;;
22502;SDS011;11418;48.118;9.992;2023-07-31T18:39:53;7.03;;;3.10;;
22502;SDS011;11418;48.118;9.992;2023-07-31T18:43:53;7.07;;;3.00;;
22502;SDS011;11418;48.118;9.992;2023-07-31T18:47:55;8.52;;;3.28;;
22502;SDS011;11418;48.118;9.992;2023-07-31T18:51:55;7.68;;;2.95;;
22502;SDS011;11418;48.118;9.992;2023-07-31T18:55:56;5.07;;;3.10;;
22502;SDS011;11418;48.118;9.992;2023-07-31T18:59:56;8.23;;;3.28;;
22502;SDS011;11418;48.118;9.992;2023-07-31T19:03:57;4.80;;;3.17;;
22502;SDS011;11418;48.118;9.992;2023-07-31T19:08:00;7.93;;;3.15;;
22502;SDS011;11418;48.118;9.992;2023-07-31T19:12:04;4.95;;;3.20;;
22502;SDS011;11418;48.118;9.992;2023-07-31T19:16:06;6.40;;;3.28;;
22502;SDS011;11418;48.118;9.992;2023-07-31T19:20:07;6.40;;;3.17;;
22502;SDS011;11418;48.118;9.992;2023-07-31T19:24:08;5.63;;;3.20;;
22502;SDS011;11418;48.118;9.992;2023-07-31T19:28:08;6.72;;;2.90;;
22502;SDS011;11418;48.118;9.992;2023-07-31T19:32:09;5.65;;;3.00;;
22502;SDS011;11418;48.118;9.992;2023-07-31T19:36:09;4.55;;;2.92;;
22502;SDS011;11418;48.118;9.992;2023-07-31T19:40:10;7.30;;;2.95;;
22502;SDS011;11418;48.118;9.992;2023-07-31T19:44:11;6.75;;;3.28;;
22502;SDS011;11418;48.118;9.992;2023-07-31T19:48:11;5.93;;;3.05;;
22502;SDS011;11418;48.118;9.992;2023-07-31T19:52:12;5.85;;;2.90;;
22502;SDS011;11418;48.118;9.992;2023-07-31T19:56:12;5.60;;;2.97;;
22502;SDS011;11418;48.118;9.992;2023-07-31T20:00:13;6.22;;;2.88;;
22502;SDS011;11418;48.118;9.992;2023-07-31T20:04:13;6.57;;;2.97;;
22502;SDS011;11418;48.118;9.992;2023-07-31T20:08:14;6.20;;;3.00;;
22502;SDS011;11418;48.118;9.992;2023-07-31T20:12:15;5.35;;;2.95;;
22502;SDS011;11418;48.118;9.992;2023-07-31T20:16:19;4.72;;;2.80;;
22502;SDS011;11418;48.118;9.992;2023-07-31T20:20:20;6.57;;;3.33;;
22502;SDS011;11418;48.118;9.992;2023-07-31T20:24:20;8.10;;;3.30;;
22502;SDS011;11418;48.118;9.992;2023-07-31T20:28:21;5.40;;;2.60;;
22502;SDS011;11418;48.118;9.992;2023-07-31T20:32:22;5.40;;;2.83;;
22502;SDS011;11418;48.118;9.992;2023-07-31T20:36:22;6.72;;;2.95;;
22502;SDS011;11418;48.118;9.992;2023-07-31T20:40:23;7.43;;;3.22;;
22502;SDS011;11418;48.118;9.992;2023-07-31T20:44:23;10.63;;;3.33;;
22502;SDS011;11418;48.118;9.992;2023-07-31T20:48:24;5.97;;;2.33;;
22502;SDS011;11418;48.118;9.992;2023-07-31T20:52:24;3.42;;;2.45;;
22502;SDS011;11418;48.118;9.992;2023-07-31T20:56:25;5.35;;;3.13;;
22502;SDS011;11418;48.118;9.992;2023-07-31T21:00:25;6.95;;;3.15;;
22502;SDS011;11418;48.118;9.992;2023-07-31T21:04:26;3.75;;;2.55;;
22502;SDS011;11418;48.118;9.992;2023-07-31T21:08:27;6.47;;;3.20;;
22502;SDS011;11418;48.118;9.992;2023-07-31T21:12:28;15.45;;;3.05;;
22502;SDS011;11418;48.118;9.992;2023-07-31T21:16:29;7.93;;;2.90;;
22502;SDS011;11418;48.118;9.992;2023-07-31T21:20:29;8.18;;;2.97;;
22502;SDS011;11418;48.118;9.992;2023-07-31T21:24:30;5.90;;;3.15;;
22502;SDS011;11418;48.118;9.992;2023-07-31T21:28:30;9.48;;;3.40;;
22502;SDS011;11418;48.118;9.992;2023-07-31T21:32:31;4.95;;;3.00;;
22502;SDS011;11418;48.118;9.992;2023-07-31T21:36:31;5.72;;;3.05;;
22502;SDS011;11418;48.118;9.992;2023-07-31T21:40:32;7.65;;;3.08;;
22502;SDS011;11418;48.118;9.992;2023-07-31T21:44:32;5.70;;;2.95;;
22502;SDS011;11418;48.118;9.992;2023-07-31T21:48:33;6.75;;;2.97;;
22502;SDS011;11418;48.118;9.992;2023-07-31T21:52:33;4.85;;;2.63;;
22502;SDS011;11418;48.118;9.992;2023-07-31T21:56:34;8.88;;;3.50;;
22502;SDS011;11418;48.118;9.992;2023-07-31T22:00:34;7.35;;;2.92;;
22502;SDS011;11418;48.118;9.992;2023-07-31T22:04:35;6.53;;;3.10;;
22502;SDS011;11418;48.118;9.992;2023-07-31T22:08:38;10.07;;;2.90;;
22502;SDS011;11418;48.118;9.992;2023-07-31T22:12:39;6.65;;;3.00;;
22502;SDS011;11418;48.118;9.992;2023-07-31T22:16:40;5.15;;;2.95;;
22502;SDS011;11418;48.118;9.992;2023-07-31T22:20:40;6.07;;;3.15;;
22502;SDS011;11418;48.118;9.992;2023-07-31T22:24:41;5.22;;;2.72;;
22502;SDS011;11418;48.118;9.992;2023-07-31T22:28:42;5.53;;;2.70;;
22502;SDS011;11418;48.118;9.992;2023-07-31T22:32:43;5.07;;;3.00;;
22502;SDS011;11418;48.118;9.992;2023-07-31T22:36:43;7.15;;;3.22;;
22502;SDS011;11418;48.118;9.992;2023-07-31T22:40:44;8.05;;;3.42;;
22502;SDS011;11418;48.118;9.992;2023-07-31T22:44:44;5.50;;;2.83;;
22502;SDS011;11418;48.118;9.992;2023-07-31T22:48:45;6.28;;;3.00;;
22502;SDS011;11418;48.118;9.992;2023-07-31T22:52:45;5.05;;;3.10;;
22502;SDS011;11418;48.118;9.992;2023-07-31T22:56:46;5.03;;;2.90;;
22502;SDS011;11418;48.118;9.992;2023-07-31T23:00:46;7.68;;;3.30;;
22502;SDS011;11418;48.118;9.992;2023-07-31T23:04:47;3.90;;;2.40;;
22502;SDS011;11418;48.118;9.992;2023-07-31T23:08:47;5.65;;;2.63;;
22502;SDS011;11418;48.118;9.992;2023-07-31T23:12:48;5.35;;;2.63;;
22502;SDS011;11418;48.118;9.992;2023-07-31T23:16:48;3.92;;;2.50;;
22502;SDS011;11418;48.118;9.992;2023-07-31T23:20:49;8.52;;;2.97;;
22502;SDS011;11418;48.118;9.992;2023-07-31T23:24:57;4.90;;;2.72;;
22502;SDS011;11418;48.118;9.992;2023-07-31T23:28:57;4.93;;;2.38;;
22502;SDS011;11418;48.118;9.992;2023-07-31T23:33:00;8.30;;;3.08;;
22502;SDS011;11418;48.118;9.992;2023-07-31T23:37:00;4.03;;;2.78;;
22502;SDS011;11418;48.118;9.992;2023-07-31T23:41:01;4.00;;;2.45;;
22502;SDS011;11418;48.118;9.992;2023-07-31T23:45:01;9.10;;;2.72;;
22502;SDS011;11418;48.118;9.992;2023-07-31T23:49:02;5.00;;;2.60;;
22502;SDS011;11418;48.118;9.992;2023-07-31T23:53:02;4.32;;;2.63;;
22502;SDS011;11418;48.118;9.992;2023-07-31T23:57:03;6.47;;;3.35;;
